createdAt,value
2022-10-12T00:01:31.066Z,87.35
2022-10-12T00:03:56.850Z,88.22
2022-10-12T00:06:23.956Z,88.04
2022-10-12T00:08:51.904Z,86.81
2022-10-12T00:11:21.137Z,86.41
2022-10-12T00:13:47.028Z,86.96
2022-10-12T00:16:14.750Z,87.74
2022-10-12T00:18:40.633Z,87.45
2022-10-12T00:21:09.607Z,87.00
2022-10-12T00:23:37.085Z,87.21
2022-10-12T00:26:23.699Z,87.56
2022-10-12T00:28:54.610Z,87.88
2022-10-12T00:31:20.946Z,88.65
2022-10-12T00:33:47.566Z,88.78
2022-10-12T00:36:26.674Z,88.24
2022-10-12T00:38:54.503Z,87.85
2022-10-12T00:41:24.610Z,88.60
2022-10-12T00:43:56.784Z,89.59
2022-10-12T00:46:36.940Z,91.15
2022-10-12T00:49:19.699Z,90.74
2022-10-12T00:51:50.449Z,91.38
2022-10-12T00:54:21.635Z,91.28
2022-10-12T00:56:50.447Z,91.16
2022-10-12T00:59:21.778Z,90.74
2022-10-12T01:01:47.703Z,91.44
2022-10-12T01:04:13.896Z,91.78
2022-10-12T01:06:40.368Z,91.51
2022-10-12T01:09:06.147Z,90.91
2022-10-12T01:11:31.870Z,90.81
2022-10-12T01:13:57.867Z,90.53
2022-10-12T01:16:45.928Z,90.28
2022-10-12T01:19:17.650Z,90.09
2022-10-12T01:21:51.900Z,90.50
2022-10-12T01:25:01.046Z,91.33
2022-10-12T01:27:43.307Z,90.83
2022-10-12T01:30:11.830Z,91.00
2022-10-12T01:33:21.715Z,90.90
2022-10-12T01:36:01.810Z,91.31
2022-10-12T01:38:52.984Z,92.94
2022-10-12T01:41:29.410Z,92.17
2022-10-12T01:43:55.179Z,92.62
2022-10-12T01:46:20.897Z,92.77
2022-10-12T01:48:50.617Z,92.58
2022-10-12T01:51:24.101Z,92.02
2022-10-12T01:54:02.803Z,92.23
2022-10-12T01:56:47.469Z,92.16
2022-10-12T01:59:23.788Z,91.37
2022-10-12T02:01:54.266Z,91.56
2022-10-12T02:04:19.944Z,91.88
2022-10-12T02:06:51.372Z,91.23
2022-10-12T02:09:23.619Z,91.27
2022-10-12T02:11:52.615Z,93.13
2022-10-12T02:14:22.563Z,92.34
2022-10-12T02:16:57.258Z,90.95
2022-10-12T02:19:28.114Z,91.83
2022-10-12T02:21:58.121Z,92.42
2022-10-12T02:24:24.219Z,91.88
2022-10-12T02:26:53.008Z,92.11
2022-10-12T02:29:23.849Z,92.43
2022-10-12T02:31:55.959Z,92.66
2022-10-12T02:34:28.624Z,92.74
2022-10-12T02:37:04.332Z,92.59
2022-10-12T02:39:41.524Z,93.01
2022-10-12T02:42:11.807Z,92.16
2022-10-12T02:44:40.412Z,93.13
2022-10-12T02:47:08.318Z,92.34
2022-10-12T02:49:35.939Z,93.02
2022-10-12T02:52:03.432Z,93.33
2022-10-12T02:54:29.941Z,93.90
2022-10-12T02:56:56.129Z,95.34
2022-10-12T02:59:22.332Z,95.43
2022-10-12T03:01:48.207Z,94.98
2022-10-12T03:04:13.993Z,94.73
2022-10-12T03:06:41.712Z,94.88
2022-10-12T03:09:08.217Z,94.18
2022-10-12T03:11:34.078Z,93.03
2022-10-12T03:14:00.249Z,93.13
2022-10-12T03:16:26.005Z,93.99
2022-10-12T03:18:52.009Z,94.98
2022-10-12T03:21:17.820Z,94.38
2022-10-12T03:23:43.544Z,95.33
2022-10-12T03:26:09.478Z,94.36
2022-10-12T03:28:35.461Z,94.78
2022-10-12T03:31:02.307Z,94.92
2022-10-12T03:33:28.153Z,94.71
2022-10-12T03:35:53.889Z,95.30
2022-10-12T03:38:19.863Z,95.50
2022-10-12T03:40:46.037Z,95.69
2022-10-12T03:43:12.276Z,95.07
2022-10-12T03:45:38.144Z,94.60
2022-10-12T03:48:06.134Z,93.58
2022-10-12T03:50:34.158Z,94.25
2022-10-12T03:53:01.124Z,95.98
2022-10-12T03:55:29.639Z,95.94
2022-10-12T03:57:55.404Z,94.88
2022-10-12T04:00:21.969Z,95.28
2022-10-12T04:02:47.755Z,94.89
2022-10-12T04:05:13.599Z,94.70
2022-10-12T04:07:39.605Z,93.31
2022-10-12T04:10:06.227Z,93.42
2022-10-12T04:12:32.210Z,93.18
2022-10-12T04:14:57.977Z,93.47
2022-10-12T04:17:23.696Z,94.20
2022-10-12T04:19:49.552Z,93.88
2022-10-12T04:22:15.377Z,94.45
2022-10-12T04:24:41.174Z,94.82
2022-10-12T04:27:06.977Z,94.17
2022-10-12T04:29:32.712Z,94.23
2022-10-12T04:31:58.562Z,94.61
2022-10-12T04:34:24.312Z,95.51
2022-10-12T04:36:50.078Z,95.40
2022-10-12T04:39:15.847Z,95.19
2022-10-12T04:41:41.626Z,95.32
2022-10-12T04:44:07.657Z,95.06
2022-10-12T04:46:33.986Z,95.62
2022-10-12T04:48:59.918Z,96.54
2022-10-12T04:51:26.207Z,96.92
2022-10-12T04:53:51.956Z,97.64
2022-10-12T04:56:17.804Z,98.14
2022-10-12T04:58:43.714Z,99.84
2022-10-12T05:01:09.731Z,99.71
2022-10-12T05:03:39.580Z,99.25
2022-10-12T05:06:07.711Z,99.86
2022-10-12T05:08:33.463Z,99.72
2022-10-12T05:10:59.253Z,99.31
2022-10-12T05:13:26.234Z,99.53
2022-10-12T05:15:52.392Z,100.00
2022-10-12T05:18:18.162Z,99.75
2022-10-12T05:20:43.972Z,99.47
2022-10-12T05:23:12.684Z,100.00
2022-10-12T05:25:38.674Z,99.21
2022-10-12T05:28:04.466Z,99.33
2022-10-12T05:30:30.213Z,99.57
2022-10-12T05:32:56.292Z,99.82
2022-10-12T05:35:22.234Z,99.16
2022-10-12T05:37:48.022Z,99.95
2022-10-12T05:40:14.003Z,99.69
2022-10-12T05:42:40.114Z,99.54
2022-10-12T05:45:06.687Z,98.72
2022-10-12T05:47:32.467Z,98.55
2022-10-12T05:49:58.214Z,98.94
2022-10-12T05:52:24.062Z,98.61
2022-10-12T05:54:49.831Z,99.57
2022-10-12T05:57:15.807Z,99.39
2022-10-12T05:59:42.347Z,98.09
2022-10-12T06:02:12.934Z,97.99
2022-10-12T06:04:38.733Z,97.34
2022-10-12T06:07:04.479Z,95.96
2022-10-12T06:09:30.331Z,95.09
2022-10-12T06:11:56.062Z,94.41
2022-10-12T06:14:21.786Z,94.05
2022-10-12T06:16:51.127Z,93.86
2022-10-12T06:19:20.167Z,93.65
2022-10-12T06:21:45.912Z,94.71
2022-10-12T06:24:11.718Z,95.29
2022-10-12T06:26:37.479Z,94.74
2022-10-12T06:29:03.311Z,95.50
2022-10-12T06:31:29.235Z,95.95
2022-10-12T06:33:55.056Z,96.02
2022-10-12T06:36:20.849Z,95.60
2022-10-12T06:38:46.628Z,95.58
2022-10-12T06:41:12.392Z,96.00
2022-10-12T06:43:38.168Z,96.43
2022-10-12T06:46:04.468Z,96.56
2022-10-12T06:48:30.242Z,95.81
2022-10-12T06:50:56.009Z,96.61
2022-10-12T06:53:22.224Z,95.98
2022-10-12T06:55:48.260Z,96.51
2022-10-12T06:58:14.167Z,95.88
2022-10-12T07:00:39.940Z,95.04
2022-10-12T07:03:05.723Z,94.32
2022-10-12T07:05:31.519Z,94.05
2022-10-12T07:07:57.351Z,93.37
2022-10-12T07:10:24.300Z,92.88
2022-10-12T07:12:50.074Z,93.95
2022-10-12T07:15:16.763Z,93.58
2022-10-12T07:17:42.504Z,92.02
2022-10-12T07:20:08.389Z,91.97
2022-10-12T07:22:34.707Z,91.47
2022-10-12T07:25:00.508Z,90.23
2022-10-12T07:27:26.315Z,89.31
2022-10-12T07:29:52.091Z,88.82
2022-10-12T07:32:17.909Z,88.16
2022-10-12T07:34:44.231Z,88.12
2022-10-12T07:37:10.706Z,88.09
2022-10-12T07:39:37.291Z,87.92
2022-10-12T07:42:03.297Z,87.63
2022-10-12T07:44:29.845Z,87.84
2022-10-12T07:46:55.608Z,88.24
2022-10-12T07:49:21.384Z,88.11
2022-10-12T07:51:47.252Z,89.65
2022-10-12T07:54:18.987Z,89.45
2022-10-12T07:56:46.278Z,87.92
2022-10-12T07:59:12.064Z,88.32
2022-10-12T08:01:37.917Z,87.60
2022-10-12T08:04:03.902Z,87.36
2022-10-12T08:06:32.350Z,86.72
2022-10-12T08:08:59.925Z,85.84
2022-10-12T08:11:26.373Z,87.12
2022-10-12T08:13:52.507Z,87.16
2022-10-12T08:16:20.741Z,86.56
2022-10-12T08:18:46.540Z,86.40
2022-10-12T08:21:13.888Z,86.47
2022-10-12T08:23:40.897Z,86.52
2022-10-12T08:26:06.812Z,86.03
2022-10-12T08:28:33.330Z,85.97
2022-10-12T08:30:59.596Z,84.65
2022-10-12T08:33:28.606Z,84.70
2022-10-12T08:35:54.446Z,83.87
2022-10-12T08:38:20.222Z,82.78
2022-10-12T08:40:51.570Z,83.06
2022-10-12T08:43:29.380Z,82.05
2022-10-12T08:45:57.521Z,81.25
2022-10-12T08:48:41.917Z,80.75
2022-10-12T08:51:14.351Z,79.62
2022-10-12T08:54:04.476Z,78.80
2022-10-12T08:56:30.607Z,77.28
2022-10-12T08:58:56.581Z,76.94
2022-10-12T09:01:28.090Z,76.58
2022-10-12T09:03:56.812Z,75.16
2022-10-12T09:06:28.040Z,74.70
2022-10-12T09:09:17.570Z,74.51
2022-10-12T09:12:12.997Z,72.85
2022-10-12T09:14:41.232Z,72.61
2022-10-12T09:17:41.398Z,72.33
2022-10-12T09:20:25.382Z,73.63
2022-10-12T09:22:54.968Z,72.95
2022-10-12T09:25:26.299Z,73.26
2022-10-12T09:27:53.533Z,74.34
2022-10-12T09:30:20.412Z,74.25
2022-10-12T09:33:17.187Z,73.11
2022-10-12T09:35:45.275Z,73.68
2022-10-12T09:38:11.243Z,72.50
2022-10-12T09:40:38.747Z,71.19
2022-10-12T09:43:05.636Z,68.86
2022-10-12T09:45:34.281Z,64.84
2022-10-12T09:48:14.523Z,61.09
2022-10-12T09:50:42.644Z,58.84
2022-10-12T09:53:28.067Z,57.87
2022-10-12T09:55:57.967Z,58.85
2022-10-12T09:58:26.303Z,58.86
2022-10-12T10:01:22.537Z,56.12
2022-10-12T10:03:51.390Z,57.43
2022-10-12T10:06:24.514Z,58.18
2022-10-12T10:08:50.308Z,58.10
2022-10-12T10:11:22.059Z,57.05
2022-10-12T10:13:53.046Z,58.16
2022-10-12T10:16:21.893Z,56.76
2022-10-12T10:18:53.826Z,54.03
2022-10-12T10:21:34.655Z,51.06
2022-10-12T10:24:03.113Z,46.91
2022-10-12T10:26:54.175Z,48.19
2022-10-12T10:29:32.039Z,46.15
2022-10-12T10:32:25.831Z,44.88
2022-10-12T10:35:01.831Z,47.23
2022-10-12T10:37:29.825Z,44.22
2022-10-12T10:39:57.201Z,39.16
2022-10-12T10:42:29.470Z,35.83
2022-10-12T10:45:02.897Z,31.94
2022-10-12T10:47:31.544Z,32.98
2022-10-12T10:50:00.503Z,30.40
2022-10-12T10:52:30.681Z,30.97
2022-10-12T10:55:17.839Z,28.93
2022-10-12T10:57:58.739Z,26.31
2022-10-12T11:00:41.125Z,26.04
2022-10-12T11:03:16.484Z,26.51
2022-10-12T11:05:47.690Z,30.38
2022-10-12T11:08:24.051Z,31.70
2022-10-12T11:10:56.357Z,32.31
2022-10-12T11:13:33.340Z,36.03
2022-10-12T11:16:21.882Z,39.87
2022-10-12T11:18:55.059Z,40.89
2022-10-12T11:21:42.674Z,40.99
2022-10-12T11:24:15.076Z,39.20
2022-10-12T11:27:00.365Z,39.91
2022-10-12T11:29:26.838Z,39.34
2022-10-12T11:31:58.350Z,43.38
2022-10-12T11:34:27.603Z,46.16
2022-10-12T11:37:18.173Z,48.01
2022-10-12T11:39:47.199Z,48.27
2022-10-12T11:42:22.673Z,49.47
2022-10-12T11:44:49.443Z,43.26
2022-10-12T11:47:35.359Z,36.85
2022-10-12T11:50:05.831Z,33.73
2022-10-12T11:52:43.619Z,30.00
2022-10-12T11:55:28.145Z,31.47
2022-10-12T11:57:57.593Z,31.47
2022-10-12T12:00:32.006Z,30.98
2022-10-12T12:03:28.091Z,31.05
2022-10-12T12:05:53.901Z,32.47
2022-10-12T12:08:42.796Z,37.29
2022-10-12T12:11:37.633Z,41.61
2022-10-12T12:14:24.923Z,41.56
2022-10-12T12:17:13.311Z,41.33
2022-10-12T12:19:48.551Z,41.68
2022-10-12T12:22:17.325Z,41.34
2022-10-12T12:25:20.127Z,40.74
2022-10-12T12:28:20.180Z,37.97
2022-10-12T12:30:56.611Z,35.87
2022-10-12T12:33:32.574Z,32.49
2022-10-12T12:36:07.038Z,33.30
2022-10-12T12:38:34.767Z,33.56
2022-10-12T12:41:02.787Z,33.40
2022-10-12T12:43:28.512Z,33.31
2022-10-12T12:46:10.628Z,32.93
2022-10-12T12:48:42.459Z,30.15
2022-10-12T12:51:11.762Z,31.21
2022-10-12T12:53:44.615Z,33.79
2022-10-12T12:56:36.731Z,34.77
2022-10-12T12:59:24.026Z,36.26
2022-10-12T13:02:19.620Z,37.70
2022-10-12T13:05:22.321Z,37.75
2022-10-12T13:08:04.644Z,36.16
2022-10-12T13:10:45.317Z,34.17
2022-10-12T13:13:48.245Z,32.59
2022-10-12T13:17:16.638Z,33.64
2022-10-12T13:19:16.686Z,35.50
2022-10-12T13:21:52.174Z,41.15
2022-10-12T13:24:29.842Z,45.08
2022-10-12T13:27:02.163Z,49.48
2022-10-12T13:29:47.660Z,51.80
2022-10-12T13:32:33.305Z,53.93
2022-10-12T13:35:41.590Z,55.18
2022-10-12T13:38:13.167Z,56.12
2022-10-12T13:40:43.615Z,55.87
2022-10-12T13:43:37.187Z,57.61
2022-10-12T13:46:04.176Z,58.53
2022-10-12T13:48:54.317Z,57.83
2022-10-12T13:51:23.356Z,59.22
2022-10-12T13:53:49.495Z,60.80
2022-10-12T13:56:20.405Z,63.39
2022-10-12T13:58:46.864Z,63.41
2022-10-12T14:01:13.435Z,64.51
2022-10-12T14:03:42.528Z,64.03
2022-10-12T14:06:27.255Z,63.87
2022-10-12T14:08:56.609Z,64.13
2022-10-12T14:11:23.173Z,65.79
2022-10-12T14:13:49.461Z,65.35
2022-10-12T14:16:15.574Z,66.51
2022-10-12T14:18:44.126Z,67.67
2022-10-12T14:21:27.444Z,68.92
2022-10-12T14:24:16.203Z,69.02
2022-10-12T14:26:44.118Z,70.13
2022-10-12T14:29:28.579Z,69.08
2022-10-12T14:31:57.565Z,69.06
2022-10-12T14:34:26.031Z,70.03
2022-10-12T14:37:03.558Z,69.80
2022-10-12T14:39:30.110Z,70.49
2022-10-12T14:41:58.442Z,70.68
2022-10-12T14:44:26.102Z,72.32
2022-10-12T14:47:01.800Z,73.27
2022-10-12T14:49:45.509Z,75.42
2022-10-12T14:52:36.931Z,77.19
2022-10-12T14:55:03.994Z,78.40
2022-10-12T14:57:30.885Z,79.03
2022-10-12T14:59:57.354Z,79.20
2022-10-12T15:02:29.312Z,79.61
2022-10-12T15:04:55.765Z,79.34
2022-10-12T15:07:30.116Z,79.25
2022-10-12T15:09:56.120Z,78.82
2022-10-12T15:12:23.567Z,79.04
2022-10-12T15:14:54.783Z,80.00
2022-10-12T15:17:21.313Z,78.75
2022-10-12T15:19:49.136Z,79.32
2022-10-12T15:22:33.070Z,79.14
2022-10-12T15:24:58.803Z,80.12
2022-10-12T15:27:24.548Z,79.64
2022-10-12T15:29:50.426Z,80.07
2022-10-12T15:32:18.244Z,79.95
2022-10-12T15:34:44.223Z,80.77
2022-10-12T15:37:10.410Z,81.33
2022-10-12T15:39:36.384Z,80.88
2022-10-12T15:42:02.428Z,81.91
2022-10-12T15:44:28.373Z,81.84
2022-10-12T15:46:54.331Z,82.34
2022-10-12T15:49:24.062Z,82.93
2022-10-12T15:51:52.375Z,82.42
2022-10-12T15:54:18.835Z,82.87
2022-10-12T15:56:45.014Z,83.43
2022-10-12T15:59:10.817Z,84.26
2022-10-12T16:01:37.346Z,85.51
2022-10-12T16:04:04.760Z,86.04
2022-10-12T16:06:30.721Z,87.48
2022-10-12T16:08:56.507Z,87.88
2022-10-12T16:11:22.337Z,88.35
2022-10-12T16:13:55.446Z,88.69
2022-10-12T16:16:22.489Z,89.29
2022-10-12T16:18:48.433Z,89.91
2022-10-12T16:21:14.273Z,89.51
2022-10-12T16:23:40.378Z,89.79
2022-10-12T16:26:10.575Z,90.00
2022-10-12T16:28:36.671Z,89.54
2022-10-12T16:31:11.115Z,90.00
2022-10-12T16:33:37.327Z,91.27
2022-10-12T16:36:11.120Z,91.18
2022-10-12T16:38:36.905Z,92.34
2022-10-12T16:41:07.719Z,91.72
2022-10-12T16:43:33.527Z,91.52
2022-10-12T16:45:59.368Z,92.52
2022-10-12T16:48:25.353Z,93.21
2022-10-12T16:50:51.125Z,93.11
2022-10-12T16:53:16.906Z,93.37
2022-10-12T16:55:42.683Z,94.28
2022-10-12T16:58:08.437Z,94.54
2022-10-12T17:00:34.643Z,95.15
2022-10-12T17:03:00.750Z,95.71
2022-10-12T17:05:26.686Z,96.40
2022-10-12T17:07:52.423Z,96.73
2022-10-12T17:10:18.201Z,97.91
2022-10-12T17:12:44.020Z,97.65
2022-10-12T17:15:09.936Z,98.91
2022-10-12T17:17:35.831Z,98.45
2022-10-12T17:22:34.147Z,98.24
2022-10-12T17:25:00.038Z,98.16
2022-10-12T17:27:29.986Z,98.47
2022-10-12T17:29:58.864Z,98.69
2022-10-12T17:32:25.382Z,98.87
2022-10-12T17:34:51.260Z,98.33
2022-10-12T17:37:17.169Z,99.14
2022-10-12T17:39:45.267Z,99.65
2022-10-12T17:42:11.809Z,99.89
2022-10-12T17:44:37.686Z,100.00
2022-10-12T17:47:03.731Z,99.73
2022-10-12T17:49:29.716Z,100.00
2022-10-12T17:51:55.627Z,100.00
2022-10-12T17:54:25.583Z,100.00
2022-10-12T17:56:52.580Z,100.00
2022-10-12T17:59:18.899Z,100.00
2022-10-12T18:01:45.161Z,100.00
2022-10-12T18:04:12.176Z,100.00
2022-10-12T18:06:38.494Z,100.00
2022-10-12T18:09:06.212Z,100.00
2022-10-12T18:11:32.457Z,100.00
2022-10-12T18:13:58.228Z,100.00
2022-10-12T18:16:27.069Z,100.00
2022-10-12T18:18:54.351Z,100.00
2022-10-12T18:21:23.126Z,100.00
2022-10-12T18:23:50.059Z,100.00
2022-10-12T18:26:19.230Z,100.00
2022-10-12T18:28:52.771Z,100.00
2022-10-12T18:31:21.291Z,100.00
2022-10-12T18:33:47.707Z,100.00
2022-10-12T18:36:15.340Z,100.00
2022-10-12T18:38:41.481Z,100.00
2022-10-12T18:41:09.568Z,100.00
2022-10-12T18:43:35.998Z,100.00
2022-10-12T18:46:11.002Z,100.00
2022-10-12T18:48:37.214Z,100.00
2022-10-12T18:51:27.931Z,100.00
2022-10-12T18:53:55.180Z,100.00
2022-10-12T18:56:20.999Z,100.00
2022-10-12T18:58:47.257Z,100.00
2022-10-12T19:01:19.574Z,100.00
2022-10-12T19:03:46.415Z,100.00
2022-10-12T19:06:14.936Z,100.00
2022-10-12T19:08:42.840Z,100.00
2022-10-12T19:11:13.609Z,100.00
2022-10-12T19:13:40.931Z,100.00
2022-10-12T19:16:09.977Z,100.00
2022-10-12T19:18:37.126Z,100.00
2022-10-12T19:21:05.739Z,100.00
2022-10-12T19:23:31.548Z,100.00
2022-10-12T19:26:05.515Z,100.00
2022-10-12T19:28:31.813Z,100.00
2022-10-12T19:30:58.108Z,100.00
2022-10-12T19:33:26.136Z,100.00
2022-10-12T19:35:52.400Z,100.00
2022-10-12T19:38:19.735Z,100.00
2022-10-12T19:40:46.126Z,100.00
2022-10-12T19:43:12.329Z,100.00
2022-10-12T19:45:39.569Z,100.00
2022-10-12T19:48:06.213Z,100.00
2022-10-12T19:50:32.638Z,100.00
2022-10-12T19:52:58.693Z,100.00
2022-10-12T19:55:24.704Z,100.00
2022-10-12T19:57:50.844Z,100.00
2022-10-12T20:00:17.802Z,100.00
2022-10-12T20:02:43.920Z,100.00
2022-10-12T20:05:10.800Z,100.00
2022-10-12T20:07:37.066Z,100.00
2022-10-12T20:10:05.116Z,100.00
2022-10-12T20:12:31.238Z,100.00
2022-10-12T20:14:57.399Z,100.00
2022-10-12T20:17:23.193Z,100.00
2022-10-12T20:19:49.929Z,100.00
2022-10-12T20:22:16.420Z,100.00
2022-10-12T20:24:42.643Z,100.00
2022-10-12T20:27:08.480Z,100.00
2022-10-12T20:29:34.496Z,100.00
2022-10-12T20:32:00.711Z,100.00
2022-10-12T20:34:26.570Z,100.00
2022-10-12T20:36:52.413Z,100.00
2022-10-12T20:39:18.700Z,100.00
2022-10-12T20:41:44.522Z,100.00
2022-10-12T20:44:10.893Z,100.00
2022-10-12T20:46:36.704Z,100.00
2022-10-12T20:49:03.480Z,100.00
2022-10-12T20:51:35.321Z,100.00
2022-10-12T20:54:03.322Z,100.00
2022-10-12T20:56:31.408Z,100.00
2022-10-12T20:58:58.042Z,100.00
2022-10-12T21:01:25.455Z,100.00
2022-10-12T21:03:52.715Z,100.00
2022-10-12T21:06:20.703Z,100.00
2022-10-12T21:08:51.376Z,100.00
2022-10-12T21:11:17.851Z,100.00
2022-10-12T21:13:45.261Z,100.00
2022-10-12T21:16:12.617Z,100.00
2022-10-12T21:18:39.539Z,100.00
2022-10-12T21:21:10.813Z,100.00
2022-10-12T21:23:37.268Z,100.00
2022-10-12T21:26:17.461Z,100.00
2022-10-12T21:28:44.761Z,100.00
2022-10-12T21:31:11.953Z,100.00
2022-10-12T21:33:38.498Z,100.00
2022-10-12T21:36:12.877Z,100.00
2022-10-12T21:38:39.515Z,100.00
2022-10-12T21:41:07.424Z,100.00
2022-10-12T21:43:34.466Z,100.00
2022-10-12T21:46:29.806Z,100.00
2022-10-12T21:48:56.040Z,100.00
2022-10-12T21:51:23.165Z,100.00
2022-10-12T21:53:50.146Z,100.00
2022-10-12T21:56:22.425Z,100.00
2022-10-12T21:58:49.660Z,100.00
2022-10-12T22:01:20.919Z,100.00
2022-10-12T22:03:49.502Z,100.00
2022-10-12T22:06:17.563Z,100.00
2022-10-12T22:08:44.410Z,100.00
2022-10-12T22:11:12.107Z,100.00
2022-10-12T22:13:38.207Z,100.00
2022-10-12T22:16:07.560Z,100.00
2022-10-12T22:18:34.001Z,100.00
2022-10-12T22:21:10.575Z,100.00
2022-10-12T22:23:36.497Z,100.00
2022-10-12T22:26:06.147Z,100.00
2022-10-12T22:28:32.268Z,100.00
2022-10-12T22:30:58.083Z,100.00
2022-10-12T22:33:23.977Z,100.00
2022-10-12T22:35:57.976Z,100.00
2022-10-12T22:38:24.398Z,100.00
2022-10-12T22:40:58.264Z,100.00
2022-10-12T22:43:28.832Z,100.00
2022-10-12T22:45:54.955Z,100.00
2022-10-12T22:48:21.493Z,100.00
2022-10-12T22:50:47.776Z,100.00
2022-10-12T22:53:15.234Z,100.00
2022-10-12T22:55:42.567Z,100.00
2022-10-12T22:58:08.271Z,100.00
2022-10-12T23:00:34.085Z,100.00
2022-10-12T23:02:59.942Z,100.00
2022-10-12T23:05:25.937Z,100.00
2022-10-12T23:07:52.012Z,100.00
2022-10-12T23:10:18.589Z,100.00
2022-10-12T23:12:44.322Z,100.00
2022-10-12T23:15:10.342Z,100.00
2022-10-12T23:17:36.123Z,100.00
2022-10-12T23:20:03.288Z,100.00
2022-10-12T23:22:29.227Z,100.00
2022-10-12T23:24:54.998Z,100.00
2022-10-12T23:27:20.865Z,100.00
2022-10-12T23:29:46.939Z,100.00
2022-10-12T23:32:13.059Z,100.00
2022-10-12T23:34:38.935Z,100.00
2022-10-12T23:37:04.834Z,100.00
2022-10-12T23:39:30.866Z,100.00
2022-10-12T23:41:56.699Z,100.00
2022-10-12T23:44:22.559Z,100.00
2022-10-12T23:46:48.401Z,100.00
2022-10-12T23:49:14.273Z,100.00
2022-10-12T23:51:40.037Z,100.00
2022-10-12T23:54:05.853Z,100.00
2022-10-12T23:56:31.658Z,100.00
2022-10-12T23:58:57.679Z,100.00
